createdAt,value
2023-01-30T00:00:40.827Z,101955.41
2023-01-30T00:03:46.366Z,101963.84
2023-01-30T00:06:51.761Z,101966.34
2023-01-30T00:09:57.072Z,101956.50
2023-01-30T00:13:03.041Z,101955.53
2023-01-30T00:16:12.267Z,101954.59
2023-01-30T00:19:18.198Z,101964.81
2023-01-30T00:22:23.515Z,101965.22
2023-01-30T00:25:29.781Z,101956.66
2023-01-30T00:28:35.813Z,101953.34
2023-01-30T00:31:42.756Z,101943.25
2023-01-30T00:34:48.711Z,101937.34
2023-01-30T00:37:59.573Z,101934.84
2023-01-30T00:41:05.656Z,101932.66
2023-01-30T00:44:29.879Z,101936.91
2023-01-30T00:47:35.519Z,101924.47
2023-01-30T00:50:44.053Z,101921.97
2023-01-30T00:53:51.073Z,101919.91
2023-01-30T00:56:56.297Z,101914.38
2023-01-30T01:00:05.959Z,101916.88
2023-01-30T01:03:11.648Z,101917.56
2023-01-30T01:06:17.587Z,101917.41
2023-01-30T01:09:24.517Z,101916.59
2023-01-30T01:12:31.421Z,101920.47
2023-01-30T01:15:38.494Z,101921.03
2023-01-30T01:18:44.179Z,101911.06
2023-01-30T01:21:49.803Z,101918.91
2023-01-30T01:24:55.611Z,101919.91
2023-01-30T01:28:01.248Z,101922.69
2023-01-30T01:31:15.372Z,101914.94
2023-01-30T01:34:20.820Z,101913.00
2023-01-30T01:37:26.822Z,101904.69
2023-01-30T01:40:51.215Z,101896.69
2023-01-30T01:44:08.899Z,101893.25
2023-01-30T01:47:14.406Z,101886.16
2023-01-30T01:50:27.033Z,101889.38
2023-01-30T01:53:39.992Z,101875.00
2023-01-30T01:56:49.399Z,101876.94
2023-01-30T02:00:12.692Z,101871.81
2023-01-30T02:03:23.062Z,101871.09
2023-01-30T02:06:30.511Z,101867.53
2023-01-30T02:09:37.262Z,101868.63
2023-01-30T02:12:44.049Z,101864.66
2023-01-30T02:15:51.573Z,101855.53
2023-01-30T02:18:56.934Z,101855.34
2023-01-30T02:22:42.499Z,101846.41
2023-01-30T02:26:00.051Z,101840.84
2023-01-30T02:29:11.247Z,101829.78
2023-01-30T02:32:34.658Z,101832.19
2023-01-30T02:35:57.469Z,101844.19
2023-01-30T02:39:24.024Z,101826.66
2023-01-30T02:42:48.005Z,101828.59
2023-01-30T02:46:25.818Z,101835.38
2023-01-30T02:49:39.612Z,101824.84
2023-01-30T02:52:48.049Z,101828.34
2023-01-30T02:55:53.584Z,101825.72
2023-01-30T02:59:07.285Z,101833.03
2023-01-30T03:02:29.001Z,101830.41
2023-01-30T03:05:48.265Z,101817.97
2023-01-30T03:09:25.880Z,101811.75
2023-01-30T03:13:09.677Z,101807.47
2023-01-30T03:16:25.934Z,101801.66
2023-01-30T03:19:33.308Z,101797.66
2023-01-30T03:22:38.772Z,101798.34
2023-01-30T03:25:46.516Z,101790.34
2023-01-30T03:28:53.602Z,101781.25
2023-01-30T03:31:59.237Z,101783.88
2023-01-30T03:35:04.896Z,101775.03
2023-01-30T03:38:12.087Z,101767.44
2023-01-30T03:41:18.389Z,101772.41
2023-01-30T03:44:24.047Z,101764.81
2023-01-30T03:47:29.627Z,101762.75
2023-01-30T03:50:35.118Z,101762.75
2023-01-30T03:53:40.396Z,101756.09
2023-01-30T03:56:46.027Z,101760.13
2023-01-30T03:59:51.328Z,101760.13
2023-01-30T04:02:59.443Z,101752.78
2023-01-30T04:06:05.528Z,101744.78
2023-01-30T04:09:11.266Z,101753.38
2023-01-30T04:12:23.307Z,101752.09
2023-01-30T04:15:34.423Z,101743.28
2023-01-30T04:18:58.526Z,101727.13
2023-01-30T04:22:09.363Z,101727.69
2023-01-30T04:25:15.273Z,101727.81
2023-01-30T04:28:20.973Z,101719.09
2023-01-30T04:31:26.445Z,101718.16
2023-01-30T04:34:45.581Z,101706.16
2023-01-30T04:37:51.363Z,101710.03
2023-01-30T04:40:59.689Z,101704.50
2023-01-30T04:44:08.094Z,101709.47
2023-01-30T04:47:27.071Z,101708.75
2023-01-30T04:50:33.074Z,101707.91
2023-01-30T04:53:38.855Z,101701.19
2023-01-30T04:56:44.385Z,101697.44
2023-01-30T04:59:50.055Z,101686.41
2023-01-30T05:02:58.244Z,101684.34
2023-01-30T05:06:03.446Z,101687.91
2023-01-30T05:09:09.003Z,101678.00
2023-01-30T05:12:14.772Z,101673.31
2023-01-30T05:15:20.776Z,101682.56
2023-01-30T05:18:26.906Z,101676.06
2023-01-30T05:21:32.483Z,101680.34
2023-01-30T05:24:38.097Z,101678.94
2023-01-30T05:27:43.576Z,101682.53
2023-01-30T05:30:48.942Z,101698.69
2023-01-30T05:33:54.549Z,101690.44
2023-01-30T05:37:00.265Z,101695.25
2023-01-30T05:40:06.607Z,101705.75
2023-01-30T05:43:12.194Z,101710.72
2023-01-30T05:46:18.635Z,101715.00
2023-01-30T05:49:24.280Z,101712.22
2023-01-30T05:52:29.353Z,101707.41
2023-01-30T05:55:34.651Z,101706.97
2023-01-30T05:58:40.483Z,101712.91
2023-01-30T06:01:45.773Z,101715.41
2023-01-30T06:04:51.397Z,101717.06
2023-01-30T06:07:57.135Z,101722.19
2023-01-30T06:11:11.952Z,101718.84
2023-01-30T06:14:17.076Z,101713.88
2023-01-30T06:17:22.950Z,101718.84
2023-01-30T06:20:28.352Z,101715.13
2023-01-30T06:23:34.106Z,101713.06
2023-01-30T06:26:39.739Z,101711.81
2023-01-30T06:29:45.521Z,101707.13
2023-01-30T06:32:51.974Z,101718.31
2023-01-30T06:35:57.144Z,101722.44
2023-01-30T06:39:03.269Z,101720.09
2023-01-30T06:42:08.754Z,101702.28
2023-01-30T06:45:19.017Z,101706.56
2023-01-30T06:48:24.960Z,101723.66
2023-01-30T06:51:30.909Z,101732.91
2023-01-30T06:54:36.403Z,101736.09
2023-01-30T06:57:42.555Z,101728.63
2023-01-30T07:00:48.151Z,101724.66
2023-01-30T07:03:54.165Z,101720.78
2023-01-30T07:06:59.735Z,101730.31
2023-01-30T07:10:09.103Z,101729.75
2023-01-30T07:13:15.235Z,101728.50
2023-01-30T07:16:21.444Z,101744.53
2023-01-30T07:19:27.062Z,101743.81
2023-01-30T07:22:32.492Z,101716.91
2023-01-30T07:25:37.754Z,101693.97
2023-01-30T07:28:43.533Z,101701.53
2023-01-30T07:31:49.112Z,101703.75
2023-01-30T07:34:54.988Z,101705.97
2023-01-30T07:38:00.948Z,101708.88
2023-01-30T07:41:06.648Z,101711.00
2023-01-30T07:44:13.295Z,101712.13
2023-01-30T07:47:20.404Z,101716.72
2023-01-30T07:50:25.964Z,101721.84
2023-01-30T07:53:31.496Z,101721.16
2023-01-30T07:56:37.091Z,101707.31
2023-01-30T07:59:43.198Z,101715.00
2023-01-30T08:02:49.023Z,101713.69
2023-01-30T08:05:54.576Z,101712.00
2023-01-30T08:09:00.252Z,101712.56
2023-01-30T08:12:06.171Z,101711.94
2023-01-30T08:15:11.685Z,101705.16
2023-01-30T08:18:17.162Z,101691.13
2023-01-30T08:21:22.596Z,101687.53
2023-01-30T08:24:28.104Z,101679.78
2023-01-30T08:27:33.417Z,101677.03
2023-01-30T08:30:38.916Z,101666.06
2023-01-30T08:33:44.932Z,101667.56
2023-01-30T08:36:51.235Z,101648.06
2023-01-30T08:39:57.311Z,101639.63
2023-01-30T08:43:03.136Z,101648.81
2023-01-30T08:46:09.118Z,101640.25
2023-01-30T08:49:15.132Z,101652.41
2023-01-30T08:52:21.204Z,101642.84
2023-01-30T08:55:27.208Z,101646.25
2023-01-30T08:58:32.843Z,101667.00
2023-01-30T09:01:38.757Z,101663.38
2023-01-30T09:04:44.376Z,101656.16
2023-01-30T09:07:50.896Z,101644.69
2023-01-30T09:11:04.994Z,101651.88
2023-01-30T09:14:10.415Z,101663.53
2023-01-30T09:17:16.109Z,101651.94
2023-01-30T09:20:22.153Z,101647.13
2023-01-30T09:23:28.022Z,101646.38
2023-01-30T09:26:33.437Z,101640.09
2023-01-30T09:29:38.672Z,101643.53
2023-01-30T09:32:44.151Z,101645.88
2023-01-30T09:35:50.986Z,101656.91
2023-01-30T09:38:56.639Z,101651.53
2023-01-30T09:42:13.641Z,101636.34
2023-01-30T09:45:44.049Z,101636.78
2023-01-30T09:49:14.211Z,101622.63
2023-01-30T09:52:25.550Z,101628.84
2023-01-30T09:55:34.355Z,101626.56
2023-01-30T09:58:55.054Z,101625.72
2023-01-30T10:02:44.773Z,101609.06
2023-01-30T10:06:01.150Z,101616.34
2023-01-30T10:09:14.447Z,101613.81
2023-01-30T10:12:39.251Z,101609.47
2023-01-30T10:16:18.967Z,101600.56
2023-01-30T10:19:45.748Z,101596.94
2023-01-30T10:23:03.272Z,101584.94
2023-01-30T10:26:14.742Z,101585.13
2023-01-30T10:29:39.124Z,101573.56
2023-01-30T10:32:56.108Z,101561.38
2023-01-30T10:36:12.856Z,101553.63
2023-01-30T10:39:54.915Z,101541.28
2023-01-30T10:43:16.569Z,101529.56
2023-01-30T10:47:04.490Z,101510.97
2023-01-30T10:50:29.771Z,101500.06
2023-01-30T10:54:04.204Z,101503.19
2023-01-30T10:57:25.439Z,101492.44
2023-01-30T11:00:40.086Z,101474.25
2023-01-30T11:03:53.006Z,101481.34
2023-01-30T11:07:01.593Z,101474.16
2023-01-30T11:10:21.590Z,101478.78
2023-01-30T11:13:32.681Z,101477.38
2023-01-30T11:16:57.188Z,101472.41
2023-01-30T11:20:19.373Z,101469.81
2023-01-30T11:23:32.122Z,101444.91
2023-01-30T11:26:46.758Z,101438.88
2023-01-30T11:30:23.304Z,101420.13
2023-01-30T11:33:38.510Z,101428.81
2023-01-30T11:36:43.963Z,101425.91
2023-01-30T11:39:53.490Z,101420.53
2023-01-30T11:43:04.343Z,101410.34
2023-01-30T11:46:14.468Z,101395.53
2023-01-30T11:49:46.121Z,101393.69
2023-01-30T11:52:49.440Z,101397.03
2023-01-30T11:56:05.169Z,101384.75
2023-01-30T11:59:11.173Z,101392.47
2023-01-30T12:02:26.593Z,101390.19
2023-01-30T12:05:34.841Z,101376.38
2023-01-30T12:08:43.157Z,101369.78
2023-01-30T12:11:48.458Z,101354.13
2023-01-30T12:15:00.661Z,101319.91
2023-01-30T12:18:13.872Z,101315.34
2023-01-30T12:21:36.323Z,101300.25
2023-01-30T12:24:53.312Z,101296.97
2023-01-30T12:28:10.425Z,101317.81
2023-01-30T12:31:43.933Z,101316.00
2023-01-30T12:34:51.243Z,101308.16
2023-01-30T12:38:28.967Z,101303.13
2023-01-30T12:42:16.363Z,101285.16
2023-01-30T12:45:26.039Z,101293.72
2023-01-30T12:49:07.802Z,101285.06
2023-01-30T12:52:42.282Z,101280.84
2023-01-30T12:56:10.725Z,101256.94
2023-01-30T12:59:30.997Z,101263.34
2023-01-30T13:02:57.886Z,101252.41
2023-01-30T13:06:32.327Z,101237.28
2023-01-30T13:09:40.627Z,101236.59
2023-01-30T13:12:51.439Z,101220.03
2023-01-30T13:16:33.109Z,101189.63
2023-01-30T13:19:52.967Z,101201.25
2023-01-30T13:23:36.445Z,101209.28
2023-01-30T13:26:43.655Z,101210.72
2023-01-30T13:29:50.379Z,101215.41
2023-01-30T13:33:01.297Z,101206.06
2023-01-30T13:36:35.809Z,101215.63
2023-01-30T13:40:05.387Z,101204.81
2023-01-30T13:43:42.490Z,101190.38
2023-01-30T13:46:52.272Z,101188.13
2023-01-30T13:50:21.256Z,101187.94
2023-01-30T13:53:40.123Z,101198.13
2023-01-30T13:56:53.812Z,101183.84
2023-01-30T14:00:21.133Z,101176.94
2023-01-30T14:03:33.471Z,101165.75
2023-01-30T14:06:39.515Z,101165.31
2023-01-30T14:10:03.358Z,101160.63
2023-01-30T14:13:12.692Z,101156.75
2023-01-30T14:16:20.312Z,101159.19
2023-01-30T14:19:40.321Z,101147.78
2023-01-30T14:23:01.033Z,101156.34
2023-01-30T14:26:06.279Z,101150.84
2023-01-30T14:29:11.933Z,101133.28
2023-01-30T14:32:20.387Z,101137.97
2023-01-30T14:35:31.623Z,101131.44
2023-01-30T14:38:39.032Z,101132.66
2023-01-30T14:41:44.156Z,101122.25
2023-01-30T14:45:15.216Z,101128.59
2023-01-30T14:48:44.929Z,101128.38
2023-01-30T14:51:50.402Z,101127.34
2023-01-30T14:54:55.734Z,101127.13
2023-01-30T14:58:05.367Z,101123.47
2023-01-30T15:01:11.842Z,101124.06
2023-01-30T15:04:20.008Z,101126.09
2023-01-30T15:07:52.138Z,101125.88
2023-01-30T15:11:12.192Z,101123.44
2023-01-30T15:14:34.566Z,101126.25
2023-01-30T15:18:09.004Z,101129.31
2023-01-30T15:21:41.156Z,101118.91
2023-01-30T15:24:55.400Z,101126.13
2023-01-30T15:28:21.222Z,101138.72
2023-01-30T15:31:27.029Z,101124.41
2023-01-30T15:34:35.916Z,101115.84
2023-01-30T15:37:51.809Z,101117.00
2023-01-30T15:41:10.276Z,101110.84
2023-01-30T15:44:36.795Z,101115.06
2023-01-30T15:47:47.790Z,101124.19
2023-01-30T15:50:57.325Z,101120.53
2023-01-30T15:54:09.099Z,101124.13
2023-01-30T15:57:25.072Z,101109.97
2023-01-30T16:00:34.290Z,101111.34
2023-01-30T16:03:43.009Z,101114.13
2023-01-30T16:06:48.328Z,101094.47
2023-01-30T16:10:12.911Z,101108.72
2023-01-30T16:13:21.079Z,101116.66
2023-01-30T16:16:28.314Z,101118.19
2023-01-30T16:19:37.604Z,101127.50
2023-01-30T16:22:47.901Z,101134.16
2023-01-30T16:25:55.213Z,101128.63
2023-01-30T16:29:05.269Z,101125.50
2023-01-30T16:32:17.640Z,101137.03
2023-01-30T16:35:28.950Z,101139.16
2023-01-30T16:38:36.852Z,101132.34
2023-01-30T16:41:43.775Z,101140.72
2023-01-30T16:44:49.225Z,101138.63
2023-01-30T16:47:54.575Z,101144.44
2023-01-30T16:51:02.519Z,101141.88
2023-01-30T16:54:23.352Z,101144.31
2023-01-30T16:57:40.639Z,101138.75
2023-01-30T17:00:51.531Z,101145.78
2023-01-30T17:04:02.377Z,101150.44
2023-01-30T17:07:08.148Z,101149.75
2023-01-30T17:10:28.810Z,101149.59
2023-01-30T17:13:38.072Z,101147.63
2023-01-30T17:16:46.421Z,101150.19
2023-01-30T17:19:51.679Z,101145.53
2023-01-30T17:23:01.508Z,101155.00
2023-01-30T17:26:06.924Z,101144.72
2023-01-30T17:29:23.877Z,101151.22
2023-01-30T17:32:39.675Z,101152.41
2023-01-30T17:35:45.639Z,101149.94
2023-01-30T17:38:53.843Z,101156.03
2023-01-30T17:41:59.014Z,101148.84
2023-01-30T17:45:04.786Z,101158.94
2023-01-30T17:48:13.287Z,101156.97
2023-01-30T17:51:18.724Z,101172.72
2023-01-30T17:54:25.653Z,101176.28
2023-01-30T17:57:31.434Z,101171.91
2023-01-30T18:00:37.045Z,101179.38
2023-01-30T18:03:43.957Z,101180.09
2023-01-30T18:06:56.233Z,101183.72
2023-01-30T18:10:01.930Z,101179.44
2023-01-30T18:13:07.524Z,101193.31
2023-01-30T18:16:31.343Z,101181.22
2023-01-30T18:19:37.067Z,101181.91
2023-01-30T18:22:43.327Z,101179.31
2023-01-30T18:25:48.759Z,101183.13
2023-01-30T18:28:54.581Z,101187.25
2023-01-30T18:32:05.265Z,101176.59
2023-01-30T18:35:11.047Z,101168.53
2023-01-30T18:38:16.569Z,101178.47
2023-01-30T18:41:24.352Z,101182.25
2023-01-30T18:44:29.546Z,101182.78
2023-01-30T18:47:34.497Z,101181.63
2023-01-30T18:50:39.902Z,101182.69
2023-01-30T18:53:47.864Z,101190.22
2023-01-30T18:56:53.248Z,101190.19
2023-01-30T18:59:58.643Z,101196.97
2023-01-30T19:03:04.084Z,101187.72
2023-01-30T19:06:11.879Z,101177.91
2023-01-30T19:09:19.257Z,101177.19
2023-01-30T19:12:42.939Z,101177.19
2023-01-30T19:15:48.512Z,101188.69
2023-01-30T19:18:55.794Z,101181.38
2023-01-30T19:22:01.123Z,101188.75
2023-01-30T19:25:07.664Z,101188.34
2023-01-30T19:28:13.191Z,101199.81
2023-01-30T19:31:21.148Z,101210.84
2023-01-30T19:34:26.764Z,101225.38
2023-01-30T19:37:31.976Z,101242.16
2023-01-30T19:40:45.045Z,101247.00
2023-01-30T19:43:51.860Z,101258.69
2023-01-30T19:46:57.156Z,101268.69
2023-01-30T19:50:03.007Z,101275.50
2023-01-30T19:53:08.531Z,101259.88
2023-01-30T19:56:15.168Z,101255.72
2023-01-30T19:59:20.453Z,101251.72
2023-01-30T20:02:25.990Z,101268.75
2023-01-30T20:05:32.032Z,101269.72
2023-01-30T20:08:38.086Z,101269.56
2023-01-30T20:11:43.790Z,101266.94
2023-01-30T20:14:49.173Z,101281.09
2023-01-30T20:17:55.042Z,101275.34
2023-01-30T20:21:11.989Z,101273.22
2023-01-30T20:24:17.192Z,101269.56
2023-01-30T20:27:22.524Z,101277.47
2023-01-30T20:30:27.646Z,101285.75
2023-01-30T20:33:33.040Z,101300.22
2023-01-30T20:36:38.771Z,101302.34
2023-01-30T20:39:44.654Z,101305.31
2023-01-30T20:42:50.393Z,101307.97
2023-01-30T20:46:13.873Z,101331.00
2023-01-30T20:49:22.183Z,101350.75
2023-01-30T20:52:29.854Z,101333.44
2023-01-30T20:55:35.091Z,101341.19
2023-01-30T20:58:40.507Z,101339.03
2023-01-30T21:01:46.693Z,101366.53
2023-01-30T21:04:52.262Z,101361.09
2023-01-30T21:07:57.725Z,101355.47
2023-01-30T21:11:08.951Z,101369.75
2023-01-30T21:14:16.677Z,101377.19
2023-01-30T21:17:22.292Z,101369.63
2023-01-30T21:20:27.544Z,101384.44
2023-01-30T21:23:33.922Z,101373.38
2023-01-30T21:26:41.386Z,101381.56
2023-01-30T21:29:46.811Z,101377.81
2023-01-30T21:32:52.670Z,101395.13
2023-01-30T21:36:02.903Z,101403.00
2023-01-30T21:39:32.067Z,101410.22
2023-01-30T21:42:55.927Z,101426.81
2023-01-30T21:46:01.832Z,101428.09
2023-01-30T21:49:07.695Z,101447.50
2023-01-30T21:52:13.097Z,101442.56
2023-01-30T21:55:18.603Z,101449.47
2023-01-30T21:58:24.232Z,101440.81
2023-01-30T22:01:30.195Z,101455.41
2023-01-30T22:04:36.619Z,101457.19
2023-01-30T22:07:42.085Z,101461.91
2023-01-30T22:10:47.720Z,101480.63
2023-01-30T22:13:53.949Z,101473.19
2023-01-30T22:16:59.922Z,101478.47
2023-01-30T22:20:05.870Z,101475.22
2023-01-30T22:23:11.164Z,101478.94
2023-01-30T22:26:19.369Z,101486.09
2023-01-30T22:29:24.802Z,101499.56
2023-01-30T22:32:30.323Z,101501.91
2023-01-30T22:35:36.108Z,101503.47
2023-01-30T22:38:46.534Z,101519.72
2023-01-30T22:41:52.216Z,101520.22
2023-01-30T22:44:57.940Z,101523.56
2023-01-30T22:48:04.083Z,101540.13
2023-01-30T22:51:18.488Z,101555.88
2023-01-30T22:54:24.983Z,101542.91
2023-01-30T22:57:30.520Z,101549.53
2023-01-30T23:00:36.871Z,101553.53
2023-01-30T23:03:44.499Z,101548.16
2023-01-30T23:06:52.147Z,101559.41
2023-01-30T23:09:57.865Z,101564.88
2023-01-30T23:13:06.720Z,101563.19
2023-01-30T23:16:13.992Z,101568.72
2023-01-30T23:19:20.772Z,101576.53
2023-01-30T23:22:26.822Z,101587.44
2023-01-30T23:25:32.921Z,101579.34
2023-01-30T23:28:40.284Z,101588.03
2023-01-30T23:31:47.145Z,101580.75
2023-01-30T23:34:52.313Z,101592.56
2023-01-30T23:38:16.256Z,101582.88
2023-01-30T23:41:24.238Z,101588.09
2023-01-30T23:44:30.051Z,101590.44
2023-01-30T23:47:35.649Z,101604.72
2023-01-30T23:50:42.640Z,101597.97
2023-01-30T23:53:49.612Z,101615.59
2023-01-30T23:56:55.583Z,101617.09
